sensor_id;sensor_type;location;lat;lon;timestamp;P1;durP1;ratioP1;P2;durP2;ratioP2
9761;SDS011;4920;49.594;11.022;2022-11-15T00:00:55;8.77;;;6.27;;
9761;SDS011;4920;49.594;11.022;2022-11-15T00:03:43;7.57;;;6.17;;
9761;SDS011;4920;49.594;11.022;2022-11-15T00:06:31;10.73;;;6.10;;
9761;SDS011;4920;49.594;11.022;2022-11-15T00:09:18;9.50;;;6.57;;
9761;SDS011;4920;49.594;11.022;2022-11-15T00:12:06;10.07;;;6.77;;
9761;SDS011;4920;49.594;11.022;2022-11-15T00:14:53;9.87;;;7.00;;
9761;SDS011;4920;49.594;11.022;2022-11-15T00:17:42;8.87;;;7.10;;
9761;SDS011;4920;49.594;11.022;2022-11-15T00:20:29;9.77;;;6.93;;
9761;SDS011;4920;49.594;11.022;2022-11-15T00:23:16;9.30;;;6.63;;
9761;SDS011;4920;49.594;11.022;2022-11-15T00:26:04;9.90;;;6.43;;
9761;SDS011;4920;49.594;11.022;2022-11-15T00:28:51;8.70;;;6.50;;
9761;SDS011;4920;49.594;11.022;2022-11-15T00:31:39;8.10;;;6.30;;
9761;SDS011;4920;49.594;11.022;2022-11-15T00:34:27;10.80;;;6.87;;
9761;SDS011;4920;49.594;11.022;2022-11-15T00:37:14;8.13;;;6.27;;
9761;SDS011;4920;49.594;11.022;2022-11-15T00:40:01;7.37;;;6.30;;
9761;SDS011;4920;49.594;11.022;2022-11-15T00:42:48;9.03;;;6.73;;
9761;SDS011;4920;49.594;11.022;2022-11-15T00:45:35;9.00;;;6.93;;
9761;SDS011;4920;49.594;11.022;2022-11-15T00:48:22;9.47;;;7.00;;
9761;SDS011;4920;49.594;11.022;2022-11-15T00:51:10;9.00;;;6.87;;
9761;SDS011;4920;49.594;11.022;2022-11-15T00:53:58;11.03;;;7.03;;
9761;SDS011;4920;49.594;11.022;2022-11-15T00:56:44;8.70;;;6.53;;
9761;SDS011;4920;49.594;11.022;2022-11-15T00:59:32;9.47;;;6.60;;
9761;SDS011;4920;49.594;11.022;2022-11-15T01:02:19;10.07;;;6.63;;
9761;SDS011;4920;49.594;11.022;2022-11-15T01:05:06;9.77;;;6.70;;
9761;SDS011;4920;49.594;11.022;2022-11-15T01:07:55;9.27;;;6.50;;
9761;SDS011;4920;49.594;11.022;2022-11-15T01:10:42;7.47;;;5.87;;
9761;SDS011;4920;49.594;11.022;2022-11-15T01:13:30;9.20;;;6.67;;
9761;SDS011;4920;49.594;11.022;2022-11-15T01:16:18;7.93;;;6.40;;
9761;SDS011;4920;49.594;11.022;2022-11-15T01:19:04;9.47;;;6.47;;
9761;SDS011;4920;49.594;11.022;2022-11-15T01:21:51;8.60;;;6.27;;
9761;SDS011;4920;49.594;11.022;2022-11-15T01:24:40;8.00;;;5.90;;
9761;SDS011;4920;49.594;11.022;2022-11-15T01:27:27;6.43;;;5.63;;
9761;SDS011;4920;49.594;11.022;2022-11-15T01:30:14;7.80;;;6.17;;
9761;SDS011;4920;49.594;11.022;2022-11-15T01:33:01;7.67;;;6.30;;
9761;SDS011;4920;49.594;11.022;2022-11-15T01:35:48;8.70;;;6.57;;
9761;SDS011;4920;49.594;11.022;2022-11-15T01:38:35;8.33;;;6.53;;
9761;SDS011;4920;49.594;11.022;2022-11-15T01:41:25;9.23;;;6.63;;
9761;SDS011;4920;49.594;11.022;2022-11-15T01:44:34;10.63;;;7.13;;
9761;SDS011;4920;49.594;11.022;2022-11-15T01:47:26;9.80;;;6.60;;
9761;SDS011;4920;49.594;11.022;2022-11-15T01:50:16;9.50;;;6.63;;
9761;SDS011;4920;49.594;11.022;2022-11-15T01:53:06;10.03;;;6.93;;
9761;SDS011;4920;49.594;11.022;2022-11-15T01:55:56;10.13;;;6.87;;
9761;SDS011;4920;49.594;11.022;2022-11-15T01:58:45;8.93;;;6.77;;
9761;SDS011;4920;49.594;11.022;2022-11-15T02:01:32;9.23;;;6.67;;
9761;SDS011;4920;49.594;11.022;2022-11-15T02:04:20;13.70;;;7.13;;
9761;SDS011;4920;49.594;11.022;2022-11-15T02:07:11;9.53;;;7.10;;
9761;SDS011;4920;49.594;11.022;2022-11-15T02:10:02;9.67;;;6.60;;
9761;SDS011;4920;49.594;11.022;2022-11-15T02:12:53;9.00;;;7.23;;
9761;SDS011;4920;49.594;11.022;2022-11-15T02:15:44;9.00;;;6.60;;
9761;SDS011;4920;49.594;11.022;2022-11-15T02:18:44;11.27;;;7.43;;
9761;SDS011;4920;49.594;11.022;2022-11-15T02:21:36;11.63;;;7.20;;
9761;SDS011;4920;49.594;11.022;2022-11-15T02:24:36;10.77;;;7.57;;
9761;SDS011;4920;49.594;11.022;2022-11-15T02:31:16;9.23;;;7.10;;
9761;SDS011;4920;49.594;11.022;2022-11-15T02:34:15;10.90;;;7.13;;
9761;SDS011;4920;49.594;11.022;2022-11-15T02:41:15;9.20;;;7.13;;
9761;SDS011;4920;49.594;11.022;2022-11-15T02:44:07;11.47;;;7.50;;
9761;SDS011;4920;49.594;11.022;2022-11-15T02:47:01;9.90;;;7.80;;
9761;SDS011;4920;49.594;11.022;2022-11-15T02:50:01;9.23;;;7.07;;
9761;SDS011;4920;49.594;11.022;2022-11-15T02:52:53;10.40;;;7.30;;
9761;SDS011;4920;49.594;11.022;2022-11-15T02:55:41;10.67;;;7.37;;
9761;SDS011;4920;49.594;11.022;2022-11-15T03:01:45;9.83;;;7.13;;
9761;SDS011;4920;49.594;11.022;2022-11-15T03:04:43;11.63;;;7.17;;
9761;SDS011;4920;49.594;11.022;2022-11-15T03:07:38;10.67;;;7.30;;
9761;SDS011;4920;49.594;11.022;2022-11-15T03:10:32;10.30;;;7.20;;
9761;SDS011;4920;49.594;11.022;2022-11-15T03:13:31;12.83;;;7.43;;
9761;SDS011;4920;49.594;11.022;2022-11-15T03:16:24;9.03;;;7.03;;
9761;SDS011;4920;49.594;11.022;2022-11-15T03:19:17;10.20;;;7.00;;
9761;SDS011;4920;49.594;11.022;2022-11-15T03:22:14;11.30;;;7.40;;
9761;SDS011;4920;49.594;11.022;2022-11-15T03:25:04;12.97;;;7.50;;
9761;SDS011;4920;49.594;11.022;2022-11-15T03:27:55;9.30;;;6.43;;
9761;SDS011;4920;49.594;11.022;2022-11-15T03:30:45;9.37;;;7.00;;
9761;SDS011;4920;49.594;11.022;2022-11-15T03:34:02;9.63;;;7.10;;
9761;SDS011;4920;49.594;11.022;2022-11-15T03:36:53;10.83;;;7.70;;
9761;SDS011;4920;49.594;11.022;2022-11-15T03:39:40;9.83;;;7.33;;
9761;SDS011;4920;49.594;11.022;2022-11-15T03:42:29;12.17;;;7.17;;
9761;SDS011;4920;49.594;11.022;2022-11-15T03:45:22;11.00;;;7.63;;
9761;SDS011;4920;49.594;11.022;2022-11-15T03:48:14;10.20;;;7.57;;
9761;SDS011;4920;49.594;11.022;2022-11-15T03:51:08;12.63;;;7.60;;
9761;SDS011;4920;49.594;11.022;2022-11-15T03:53:55;10.33;;;7.13;;
9761;SDS011;4920;49.594;11.022;2022-11-15T03:56:42;10.17;;;7.50;;
9761;SDS011;4920;49.594;11.022;2022-11-15T03:59:29;12.43;;;7.00;;
9761;SDS011;4920;49.594;11.022;2022-11-15T04:02:16;11.73;;;7.23;;
9761;SDS011;4920;49.594;11.022;2022-11-15T04:05:03;10.87;;;7.00;;
9761;SDS011;4920;49.594;11.022;2022-11-15T04:07:52;9.33;;;6.90;;
9761;SDS011;4920;49.594;11.022;2022-11-15T04:10:40;9.13;;;7.07;;
9761;SDS011;4920;49.594;11.022;2022-11-15T04:13:27;10.43;;;6.67;;
9761;SDS011;4920;49.594;11.022;2022-11-15T04:16:14;7.90;;;6.07;;
9761;SDS011;4920;49.594;11.022;2022-11-15T04:19:02;11.80;;;6.57;;
9761;SDS011;4920;49.594;11.022;2022-11-15T04:22:07;9.17;;;6.43;;
9761;SDS011;4920;49.594;11.022;2022-11-15T04:25:13;8.47;;;7.10;;
9761;SDS011;4920;49.594;11.022;2022-11-15T04:28:07;10.27;;;7.37;;
9761;SDS011;4920;49.594;11.022;2022-11-15T04:30:54;9.10;;;6.93;;
9761;SDS011;4920;49.594;11.022;2022-11-15T04:33:41;9.97;;;7.53;;
9761;SDS011;4920;49.594;11.022;2022-11-15T04:36:28;8.90;;;7.03;;
9761;SDS011;4920;49.594;11.022;2022-11-15T04:39:33;8.03;;;6.67;;
9761;SDS011;4920;49.594;11.022;2022-11-15T04:42:21;9.03;;;7.00;;
9761;SDS011;4920;49.594;11.022;2022-11-15T04:45:09;9.83;;;7.27;;
9761;SDS011;4920;49.594;11.022;2022-11-15T04:47:56;12.37;;;8.00;;
9761;SDS011;4920;49.594;11.022;2022-11-15T04:50:43;11.03;;;8.20;;
9761;SDS011;4920;49.594;11.022;2022-11-15T04:53:30;11.87;;;7.97;;
9761;SDS011;4920;49.594;11.022;2022-11-15T04:56:18;10.40;;;7.90;;
9761;SDS011;4920;49.594;11.022;2022-11-15T04:59:07;10.77;;;8.00;;
9761;SDS011;4920;49.594;11.022;2022-11-15T05:01:54;11.33;;;7.83;;
9761;SDS011;4920;49.594;11.022;2022-11-15T05:04:41;10.97;;;7.33;;
9761;SDS011;4920;49.594;11.022;2022-11-15T05:07:27;9.93;;;7.33;;
9761;SDS011;4920;49.594;11.022;2022-11-15T05:10:16;10.27;;;7.70;;
9761;SDS011;4920;49.594;11.022;2022-11-15T05:13:06;9.90;;;7.00;;
9761;SDS011;4920;49.594;11.022;2022-11-15T05:15:54;10.13;;;7.23;;
9761;SDS011;4920;49.594;11.022;2022-11-15T05:18:42;9.93;;;7.10;;
9761;SDS011;4920;49.594;11.022;2022-11-15T05:21:29;10.53;;;7.40;;
9761;SDS011;4920;49.594;11.022;2022-11-15T05:24:16;11.97;;;8.07;;
9761;SDS011;4920;49.594;11.022;2022-11-15T05:27:03;10.50;;;8.17;;
9761;SDS011;4920;49.594;11.022;2022-11-15T05:29:50;9.77;;;7.57;;
9761;SDS011;4920;49.594;11.022;2022-11-15T05:32:39;11.30;;;7.97;;
9761;SDS011;4920;49.594;11.022;2022-11-15T05:35:28;10.47;;;7.20;;
9761;SDS011;4920;49.594;11.022;2022-11-15T05:38:18;11.27;;;7.83;;
9761;SDS011;4920;49.594;11.022;2022-11-15T05:41:05;11.60;;;7.47;;
9761;SDS011;4920;49.594;11.022;2022-11-15T05:43:52;12.50;;;7.67;;
9761;SDS011;4920;49.594;11.022;2022-11-15T05:46:40;10.73;;;8.10;;
9761;SDS011;4920;49.594;11.022;2022-11-15T05:49:31;9.70;;;7.10;;
9761;SDS011;4920;49.594;11.022;2022-11-15T05:52:22;11.07;;;7.70;;
9761;SDS011;4920;49.594;11.022;2022-11-15T05:55:12;15.23;;;7.90;;
9761;SDS011;4920;49.594;11.022;2022-11-15T05:57:59;11.37;;;7.43;;
9761;SDS011;4920;49.594;11.022;2022-11-15T06:00:47;11.83;;;7.60;;
9761;SDS011;4920;49.594;11.022;2022-11-15T06:03:35;9.60;;;7.27;;
9761;SDS011;4920;49.594;11.022;2022-11-15T06:06:23;10.70;;;7.57;;
9761;SDS011;4920;49.594;11.022;2022-11-15T06:09:10;11.37;;;7.43;;
9761;SDS011;4920;49.594;11.022;2022-11-15T06:11:57;9.93;;;7.43;;
9761;SDS011;4920;49.594;11.022;2022-11-15T06:14:44;10.03;;;7.40;;
9761;SDS011;4920;49.594;11.022;2022-11-15T06:17:31;11.57;;;7.00;;
9761;SDS011;4920;49.594;11.022;2022-11-15T06:20:18;10.40;;;7.23;;
9761;SDS011;4920;49.594;11.022;2022-11-15T06:23:06;9.97;;;7.57;;
9761;SDS011;4920;49.594;11.022;2022-11-15T06:25:57;11.83;;;7.83;;
9761;SDS011;4920;49.594;11.022;2022-11-15T06:28:44;10.97;;;7.53;;
9761;SDS011;4920;49.594;11.022;2022-11-15T06:31:32;10.40;;;7.33;;
9761;SDS011;4920;49.594;11.022;2022-11-15T06:34:20;12.23;;;7.10;;
9761;SDS011;4920;49.594;11.022;2022-11-15T06:37:07;8.80;;;6.43;;
9761;SDS011;4920;49.594;11.022;2022-11-15T06:39:56;8.87;;;6.57;;
9761;SDS011;4920;49.594;11.022;2022-11-15T06:42:43;8.77;;;6.97;;
9761;SDS011;4920;49.594;11.022;2022-11-15T06:45:30;9.40;;;6.33;;
9761;SDS011;4920;49.594;11.022;2022-11-15T06:48:18;9.90;;;6.80;;
9761;SDS011;4920;49.594;11.022;2022-11-15T06:51:05;9.60;;;7.07;;
9761;SDS011;4920;49.594;11.022;2022-11-15T06:53:53;11.10;;;7.27;;
9761;SDS011;4920;49.594;11.022;2022-11-15T06:56:42;11.00;;;7.73;;
9761;SDS011;4920;49.594;11.022;2022-11-15T06:59:29;12.87;;;7.23;;
9761;SDS011;4920;49.594;11.022;2022-11-15T07:02:23;10.17;;;7.20;;
9761;SDS011;4920;49.594;11.022;2022-11-15T07:05:10;12.10;;;6.83;;
9761;SDS011;4920;49.594;11.022;2022-11-15T07:07:57;8.83;;;6.67;;
9761;SDS011;4920;49.594;11.022;2022-11-15T07:10:45;11.17;;;7.27;;
9761;SDS011;4920;49.594;11.022;2022-11-15T07:13:34;10.63;;;7.40;;
9761;SDS011;4920;49.594;11.022;2022-11-15T07:16:22;10.40;;;6.80;;
9761;SDS011;4920;49.594;11.022;2022-11-15T07:19:09;10.00;;;7.10;;
9761;SDS011;4920;49.594;11.022;2022-11-15T07:21:56;11.17;;;6.90;;
9761;SDS011;4920;49.594;11.022;2022-11-15T07:24:43;8.90;;;6.73;;
9761;SDS011;4920;49.594;11.022;2022-11-15T07:27:30;10.53;;;7.10;;
9761;SDS011;4920;49.594;11.022;2022-11-15T07:30:19;11.40;;;7.47;;
9761;SDS011;4920;49.594;11.022;2022-11-15T07:33:06;11.50;;;6.97;;
9761;SDS011;4920;49.594;11.022;2022-11-15T07:35:53;12.10;;;6.97;;
9761;SDS011;4920;49.594;11.022;2022-11-15T07:38:44;9.47;;;7.50;;
9761;SDS011;4920;49.594;11.022;2022-11-15T07:41:31;14.10;;;7.27;;
9761;SDS011;4920;49.594;11.022;2022-11-15T07:44:18;12.93;;;6.83;;
9761;SDS011;4920;49.594;11.022;2022-11-15T07:47:07;8.27;;;7.03;;
9761;SDS011;4920;49.594;11.022;2022-11-15T07:49:54;10.90;;;7.33;;
9761;SDS011;4920;49.594;11.022;2022-11-15T07:52:41;13.63;;;7.30;;
9761;SDS011;4920;49.594;11.022;2022-11-15T07:55:29;13.07;;;7.10;;
9761;SDS011;4920;49.594;11.022;2022-11-15T07:58:16;12.17;;;8.57;;
9761;SDS011;4920;49.594;11.022;2022-11-15T08:01:03;13.40;;;8.30;;
9761;SDS011;4920;49.594;11.022;2022-11-15T08:03:52;9.70;;;6.53;;
9761;SDS011;4920;49.594;11.022;2022-11-15T08:06:40;7.37;;;5.40;;
9761;SDS011;4920;49.594;11.022;2022-11-15T08:09:27;7.70;;;6.17;;
9761;SDS011;4920;49.594;11.022;2022-11-15T08:12:14;12.00;;;6.87;;
9761;SDS011;4920;49.594;11.022;2022-11-15T08:15:01;10.50;;;7.70;;
9761;SDS011;4920;49.594;11.022;2022-11-15T08:17:52;10.50;;;6.80;;
9761;SDS011;4920;49.594;11.022;2022-11-15T08:20:42;7.47;;;5.90;;
9761;SDS011;4920;49.594;11.022;2022-11-15T08:23:29;7.80;;;5.97;;
9761;SDS011;4920;49.594;11.022;2022-11-15T08:26:17;7.07;;;5.60;;
9761;SDS011;4920;49.594;11.022;2022-11-15T08:29:05;12.23;;;6.00;;
9761;SDS011;4920;49.594;11.022;2022-11-15T08:31:54;7.47;;;5.27;;
9761;SDS011;4920;49.594;11.022;2022-11-15T08:34:42;7.87;;;5.47;;
9761;SDS011;4920;49.594;11.022;2022-11-15T08:37:31;8.67;;;6.50;;
9761;SDS011;4920;49.594;11.022;2022-11-15T08:40:18;12.10;;;6.50;;
9761;SDS011;4920;49.594;11.022;2022-11-15T08:43:05;9.40;;;6.50;;
9761;SDS011;4920;49.594;11.022;2022-11-15T08:45:55;10.27;;;7.20;;
9761;SDS011;4920;49.594;11.022;2022-11-15T08:48:42;8.40;;;6.17;;
9761;SDS011;4920;49.594;11.022;2022-11-15T08:51:30;9.80;;;6.90;;
9761;SDS011;4920;49.594;11.022;2022-11-15T08:54:18;12.70;;;6.23;;
9761;SDS011;4920;49.594;11.022;2022-11-15T08:57:05;9.57;;;6.10;;
9761;SDS011;4920;49.594;11.022;2022-11-15T08:59:54;10.57;;;6.03;;
9761;SDS011;4920;49.594;11.022;2022-11-15T09:02:41;9.90;;;5.93;;
9761;SDS011;4920;49.594;11.022;2022-11-15T09:05:28;8.17;;;5.83;;
9761;SDS011;4920;49.594;11.022;2022-11-15T09:08:15;7.60;;;5.17;;
9761;SDS011;4920;49.594;11.022;2022-11-15T09:11:24;7.13;;;4.67;;
9761;SDS011;4920;49.594;11.022;2022-11-15T09:14:12;5.67;;;4.60;;
9761;SDS011;4920;49.594;11.022;2022-11-15T09:16:59;5.80;;;4.70;;
9761;SDS011;4920;49.594;11.022;2022-11-15T09:19:47;7.33;;;4.60;;
9761;SDS011;4920;49.594;11.022;2022-11-15T09:22:35;5.90;;;4.43;;
9761;SDS011;4920;49.594;11.022;2022-11-15T09:25:23;6.67;;;5.20;;
9761;SDS011;4920;49.594;11.022;2022-11-15T09:28:12;5.93;;;4.00;;
9761;SDS011;4920;49.594;11.022;2022-11-15T09:30:59;5.87;;;3.90;;
9761;SDS011;4920;49.594;11.022;2022-11-15T09:33:47;4.00;;;3.60;;
9761;SDS011;4920;49.594;11.022;2022-11-15T09:36:34;6.10;;;3.20;;
9761;SDS011;4920;49.594;11.022;2022-11-15T09:39:21;5.43;;;3.40;;
9761;SDS011;4920;49.594;11.022;2022-11-15T09:42:13;5.70;;;3.10;;
9761;SDS011;4920;49.594;11.022;2022-11-15T09:45:18;3.77;;;3.10;;
9761;SDS011;4920;49.594;11.022;2022-11-15T09:48:13;4.23;;;3.20;;
9761;SDS011;4920;49.594;11.022;2022-11-15T09:51:32;4.57;;;3.20;;
9761;SDS011;4920;49.594;11.022;2022-11-15T09:54:04;4.53;;;3.10;;
9761;SDS011;4920;49.594;11.022;2022-11-15T09:57:02;6.77;;;3.60;;
9761;SDS011;4920;49.594;11.022;2022-11-15T09:59:45;5.45;;;3.33;;
9761;SDS011;4920;49.594;11.022;2022-11-15T10:02:50;4.10;;;3.10;;
9761;SDS011;4920;49.594;11.022;2022-11-15T10:05:30;4.55;;;3.25;;
9761;SDS011;4920;49.594;11.022;2022-11-15T10:08:06;5.53;;;3.30;;
9761;SDS011;4920;49.594;11.022;2022-11-15T10:10:54;4.28;;;3.03;;
9761;SDS011;4920;49.594;11.022;2022-11-15T10:13:45;3.63;;;3.00;;
9761;SDS011;4920;49.594;11.022;2022-11-15T10:16:29;4.97;;;3.30;;
9761;SDS011;4920;49.594;11.022;2022-11-15T10:19:23;4.43;;;3.13;;
9761;SDS011;4920;49.594;11.022;2022-11-15T10:21:59;4.80;;;3.17;;
9761;SDS011;4920;49.594;11.022;2022-11-15T10:24:39;4.95;;;3.20;;
9761;SDS011;4920;49.594;11.022;2022-11-15T10:27:10;3.97;;;3.08;;
9761;SDS011;4920;49.594;11.022;2022-11-15T10:29:44;8.38;;;3.60;;
9761;SDS011;4920;49.594;11.022;2022-11-15T10:32:14;5.40;;;3.25;;
9761;SDS011;4920;49.594;11.022;2022-11-15T10:34:45;5.32;;;3.72;;
9761;SDS011;4920;49.594;11.022;2022-11-15T10:37:15;3.40;;;2.60;;
9761;SDS011;4920;49.594;11.022;2022-11-15T10:40:02;9.23;;;3.30;;
9761;SDS011;4920;49.594;11.022;2022-11-15T10:42:31;5.18;;;2.88;;
9761;SDS011;4920;49.594;11.022;2022-11-15T10:45:00;4.85;;;2.95;;
9761;SDS011;4920;49.594;11.022;2022-11-15T10:47:29;4.28;;;2.88;;
9761;SDS011;4920;49.594;11.022;2022-11-15T10:50:07;4.43;;;2.80;;
9761;SDS011;4920;49.594;11.022;2022-11-15T10:52:55;6.70;;;3.00;;
9761;SDS011;4920;49.594;11.022;2022-11-15T10:55:24;5.55;;;2.97;;
9761;SDS011;4920;49.594;11.022;2022-11-15T10:57:57;5.22;;;2.97;;
9761;SDS011;4920;49.594;11.022;2022-11-15T11:00:34;5.45;;;3.10;;
9761;SDS011;4920;49.594;11.022;2022-11-15T11:03:06;3.35;;;2.83;;
9761;SDS011;4920;49.594;11.022;2022-11-15T11:06:07;3.60;;;2.53;;
9761;SDS011;4920;49.594;11.022;2022-11-15T11:08:38;5.50;;;3.58;;
9761;SDS011;4920;49.594;11.022;2022-11-15T11:11:07;5.82;;;2.95;;
9761;SDS011;4920;49.594;11.022;2022-11-15T11:13:37;4.85;;;2.83;;
9761;SDS011;4920;49.594;11.022;2022-11-15T11:16:32;6.07;;;2.78;;
9761;SDS011;4920;49.594;11.022;2022-11-15T11:19:12;3.28;;;2.50;;
9761;SDS011;4920;49.594;11.022;2022-11-15T11:21:58;5.07;;;2.85;;
9761;SDS011;4920;49.594;11.022;2022-11-15T11:24:35;6.38;;;2.85;;
9761;SDS011;4920;49.594;11.022;2022-11-15T11:27:13;5.43;;;3.42;;
9761;SDS011;4920;49.594;11.022;2022-11-15T11:29:54;8.73;;;3.80;;
9761;SDS011;4920;49.594;11.022;2022-11-15T11:32:34;5.57;;;2.97;;
9761;SDS011;4920;49.594;11.022;2022-11-15T11:35:24;7.15;;;3.13;;
9761;SDS011;4920;49.594;11.022;2022-11-15T11:38:15;5.22;;;2.97;;
9761;SDS011;4920;49.594;11.022;2022-11-15T11:40:58;8.30;;;3.17;;
9761;SDS011;4920;49.594;11.022;2022-11-15T11:43:34;5.32;;;3.05;;
9761;SDS011;4920;49.594;11.022;2022-11-15T11:46:20;6.03;;;3.97;;
9761;SDS011;4920;49.594;11.022;2022-11-15T11:49:08;4.38;;;3.30;;
9761;SDS011;4920;49.594;11.022;2022-11-15T11:51:39;5.25;;;3.50;;
9761;SDS011;4920;49.594;11.022;2022-11-15T11:54:13;6.97;;;3.80;;
9761;SDS011;4920;49.594;11.022;2022-11-15T11:56:50;5.72;;;3.45;;
9761;SDS011;4920;49.594;11.022;2022-11-15T11:59:23;5.50;;;4.05;;
9761;SDS011;4920;49.594;11.022;2022-11-15T12:01:58;7.20;;;4.60;;
9761;SDS011;4920;49.594;11.022;2022-11-15T12:04:36;4.90;;;3.50;;
9761;SDS011;4920;49.594;11.022;2022-11-15T12:07:08;8.15;;;3.45;;
9761;SDS011;4920;49.594;11.022;2022-11-15T12:09:46;6.05;;;3.72;;
9761;SDS011;4920;49.594;11.022;2022-11-15T12:12:20;6.35;;;2.90;;
9761;SDS011;4920;49.594;11.022;2022-11-15T12:14:55;6.65;;;2.92;;
9761;SDS011;4920;49.594;11.022;2022-11-15T12:17:28;5.40;;;3.10;;
9761;SDS011;4920;49.594;11.022;2022-11-15T12:19:58;5.95;;;3.35;;
9761;SDS011;4920;49.594;11.022;2022-11-15T12:22:30;4.53;;;2.95;;
9761;SDS011;4920;49.594;11.022;2022-11-15T12:25:07;4.70;;;2.25;;
9761;SDS011;4920;49.594;11.022;2022-11-15T12:27:44;4.93;;;2.70;;
9761;SDS011;4920;49.594;11.022;2022-11-15T12:30:19;5.75;;;2.95;;
9761;SDS011;4920;49.594;11.022;2022-11-15T12:32:50;3.88;;;2.35;;
9761;SDS011;4920;49.594;11.022;2022-11-15T12:35:23;5.75;;;2.80;;
9761;SDS011;4920;49.594;11.022;2022-11-15T12:37:54;6.05;;;2.78;;
9761;SDS011;4920;49.594;11.022;2022-11-15T12:40:29;3.95;;;2.35;;
9761;SDS011;4920;49.594;11.022;2022-11-15T12:43:04;4.60;;;2.67;;
9761;SDS011;4920;49.594;11.022;2022-11-15T12:45:50;6.25;;;3.20;;
9761;SDS011;4920;49.594;11.022;2022-11-15T13:03:25;7.43;;;3.85;;
9761;SDS011;4920;49.594;11.022;2022-11-15T13:05:59;7.15;;;3.70;;
9761;SDS011;4920;49.594;11.022;2022-11-15T13:08:40;6.53;;;4.07;;
9761;SDS011;4920;49.594;11.022;2022-11-15T13:20:17;6.55;;;2.50;;
9761;SDS011;4920;49.594;11.022;2022-11-15T13:22:59;5.93;;;2.60;;
9761;SDS011;4920;49.594;11.022;2022-11-15T13:25:40;4.97;;;2.80;;
9761;SDS011;4920;49.594;11.022;2022-11-15T13:28:26;4.70;;;3.20;;
9761;SDS011;4920;49.594;11.022;2022-11-15T13:31:02;7.38;;;3.35;;
9761;SDS011;4920;49.594;11.022;2022-11-15T13:33:49;7.43;;;3.97;;
9761;SDS011;4920;49.594;11.022;2022-11-15T13:36:19;11.80;;;4.53;;
9761;SDS011;4920;49.594;11.022;2022-11-15T13:38:57;9.68;;;4.65;;
9761;SDS011;4920;49.594;11.022;2022-11-15T13:41:27;8.50;;;4.68;;
9761;SDS011;4920;49.594;11.022;2022-11-15T13:43:57;12.10;;;4.97;;
9761;SDS011;4920;49.594;11.022;2022-11-15T13:46:28;8.65;;;4.57;;
9761;SDS011;4920;49.594;11.022;2022-11-15T13:48:59;8.82;;;4.38;;
9761;SDS011;4920;49.594;11.022;2022-11-15T13:51:33;10.98;;;4.93;;
9761;SDS011;4920;49.594;11.022;2022-11-15T13:54:07;12.32;;;4.63;;
9761;SDS011;4920;49.594;11.022;2022-11-15T13:56:42;8.35;;;4.70;;
9761;SDS011;4920;49.594;11.022;2022-11-15T13:59:15;7.68;;;4.55;;
9761;SDS011;4920;49.594;11.022;2022-11-15T14:01:53;10.00;;;4.45;;
9761;SDS011;4920;49.594;11.022;2022-11-15T14:04:23;7.60;;;4.88;;
9761;SDS011;4920;49.594;11.022;2022-11-15T14:06:56;9.93;;;4.40;;
9761;SDS011;4920;49.594;11.022;2022-11-15T14:09:31;6.85;;;3.85;;
9761;SDS011;4920;49.594;11.022;2022-11-15T14:12:02;8.10;;;3.70;;
9761;SDS011;4920;49.594;11.022;2022-11-15T14:14:46;12.82;;;4.13;;
9761;SDS011;4920;49.594;11.022;2022-11-15T14:17:19;8.35;;;3.25;;
9761;SDS011;4920;49.594;11.022;2022-11-15T14:20:00;8.38;;;3.92;;
9761;SDS011;4920;49.594;11.022;2022-11-15T14:22:29;10.18;;;3.50;;
9761;SDS011;4920;49.594;11.022;2022-11-15T14:25:06;9.45;;;4.05;;
9761;SDS011;4920;49.594;11.022;2022-11-15T14:27:42;9.63;;;4.15;;
9761;SDS011;4920;49.594;11.022;2022-11-15T14:30:13;10.50;;;3.90;;
9761;SDS011;4920;49.594;11.022;2022-11-15T14:32:45;10.15;;;3.95;;
9761;SDS011;4920;49.594;11.022;2022-11-15T14:35:15;9.13;;;3.80;;
9761;SDS011;4920;49.594;11.022;2022-11-15T14:37:45;8.77;;;4.05;;
9761;SDS011;4920;49.594;11.022;2022-11-15T14:40:15;5.88;;;4.05;;
9761;SDS011;4920;49.594;11.022;2022-11-15T14:42:46;7.32;;;4.10;;
9761;SDS011;4920;49.594;11.022;2022-11-15T14:45:16;12.48;;;4.65;;
9761;SDS011;4920;49.594;11.022;2022-11-15T14:47:47;8.23;;;4.30;;
9761;SDS011;4920;49.594;11.022;2022-11-15T14:50:17;8.07;;;3.45;;
9761;SDS011;4920;49.594;11.022;2022-11-15T14:52:47;7.38;;;3.50;;
9761;SDS011;4920;49.594;11.022;2022-11-15T14:55:17;5.95;;;3.33;;
9761;SDS011;4920;49.594;11.022;2022-11-15T14:57:49;6.75;;;3.08;;
9761;SDS011;4920;49.594;11.022;2022-11-15T15:00:19;6.68;;;3.20;;
9761;SDS011;4920;49.594;11.022;2022-11-15T15:02:50;6.17;;;3.13;;
9761;SDS011;4920;49.594;11.022;2022-11-15T15:05:22;5.78;;;2.70;;
9761;SDS011;4920;49.594;11.022;2022-11-15T15:07:53;9.73;;;3.30;;
9761;SDS011;4920;49.594;11.022;2022-11-15T15:10:21;5.97;;;3.10;;
9761;SDS011;4920;49.594;11.022;2022-11-15T15:13:08;5.50;;;3.13;;
9761;SDS011;4920;49.594;11.022;2022-11-15T15:15:43;7.27;;;3.43;;
9761;SDS011;4920;49.594;11.022;2022-11-15T15:18:13;5.47;;;3.30;;
9761;SDS011;4920;49.594;11.022;2022-11-15T15:20:43;9.73;;;3.90;;
9761;SDS011;4920;49.594;11.022;2022-11-15T15:23:16;8.77;;;3.80;;
9761;SDS011;4920;49.594;11.022;2022-11-15T15:25:46;5.90;;;4.00;;
9761;SDS011;4920;49.594;11.022;2022-11-15T15:28:15;9.43;;;3.80;;
9761;SDS011;4920;49.594;11.022;2022-11-15T15:30:44;8.67;;;3.70;;
9761;SDS011;4920;49.594;11.022;2022-11-15T15:33:14;8.10;;;3.33;;
9761;SDS011;4920;49.594;11.022;2022-11-15T15:35:42;7.03;;;3.40;;
9761;SDS011;4920;49.594;11.022;2022-11-15T15:38:11;5.60;;;3.53;;
9761;SDS011;4920;49.594;11.022;2022-11-15T15:40:42;6.43;;;3.80;;
9761;SDS011;4920;49.594;11.022;2022-11-15T15:43:10;7.17;;;3.53;;
9761;SDS011;4920;49.594;11.022;2022-11-15T15:45:39;8.37;;;3.83;;
9761;SDS011;4920;49.594;11.022;2022-11-15T15:48:10;7.93;;;3.50;;
9761;SDS011;4920;49.594;11.022;2022-11-15T15:50:41;8.40;;;4.07;;
9761;SDS011;4920;49.594;11.022;2022-11-15T15:53:10;18.00;;;4.93;;
9761;SDS011;4920;49.594;11.022;2022-11-15T15:55:40;12.73;;;4.87;;
9761;SDS011;4920;49.594;11.022;2022-11-15T15:58:08;10.20;;;6.00;;
9761;SDS011;4920;49.594;11.022;2022-11-15T16:00:37;16.53;;;8.63;;
9761;SDS011;4920;49.594;11.022;2022-11-15T16:03:06;9.33;;;6.00;;
9761;SDS011;4920;49.594;11.022;2022-11-15T16:05:34;13.50;;;6.00;;
9761;SDS011;4920;49.594;11.022;2022-11-15T16:08:04;13.00;;;6.80;;
9761;SDS011;4920;49.594;11.022;2022-11-15T16:10:33;9.43;;;5.60;;
9761;SDS011;4920;49.594;11.022;2022-11-15T16:13:03;7.53;;;4.80;;
9761;SDS011;4920;49.594;11.022;2022-11-15T16:15:31;10.07;;;4.17;;
9761;SDS011;4920;49.594;11.022;2022-11-15T16:18:00;7.77;;;4.40;;
9761;SDS011;4920;49.594;11.022;2022-11-15T16:20:31;9.13;;;5.17;;
9761;SDS011;4920;49.594;11.022;2022-11-15T16:23:02;14.30;;;7.00;;
9761;SDS011;4920;49.594;11.022;2022-11-15T16:25:38;11.10;;;6.30;;
9761;SDS011;4920;49.594;11.022;2022-11-15T16:28:14;11.13;;;7.17;;
9761;SDS011;4920;49.594;11.022;2022-11-15T16:30:45;13.53;;;7.13;;
9761;SDS011;4920;49.594;11.022;2022-11-15T16:33:22;10.83;;;6.83;;
9761;SDS011;4920;49.594;11.022;2022-11-15T16:35:51;11.50;;;7.27;;
9761;SDS011;4920;49.594;11.022;2022-11-15T16:38:19;11.37;;;6.67;;
9761;SDS011;4920;49.594;11.022;2022-11-15T16:40:49;8.57;;;5.67;;
9761;SDS011;4920;49.594;11.022;2022-11-15T16:43:18;8.53;;;5.80;;
9761;SDS011;4920;49.594;11.022;2022-11-15T16:45:47;10.80;;;5.73;;
9761;SDS011;4920;49.594;11.022;2022-11-15T16:48:19;9.90;;;5.87;;
9761;SDS011;4920;49.594;11.022;2022-11-15T16:50:51;7.93;;;6.10;;
9761;SDS011;4920;49.594;11.022;2022-11-15T16:53:23;8.40;;;6.00;;
9761;SDS011;4920;49.594;11.022;2022-11-15T16:55:53;11.53;;;6.47;;
9761;SDS011;4920;49.594;11.022;2022-11-15T16:58:23;9.60;;;6.70;;
9761;SDS011;4920;49.594;11.022;2022-11-15T17:00:51;11.17;;;6.70;;
9761;SDS011;4920;49.594;11.022;2022-11-15T17:03:21;9.37;;;6.43;;
9761;SDS011;4920;49.594;11.022;2022-11-15T17:05:51;10.23;;;6.17;;
9761;SDS011;4920;49.594;11.022;2022-11-15T17:08:19;8.90;;;5.80;;